createdAt,value
2022-08-16T00:05:17.916Z,18.70
2022-08-16T00:15:51.442Z,18.60
2022-08-16T00:26:35.946Z,18.20
2022-08-16T00:36:58.840Z,18.50
2022-08-16T00:47:29.921Z,18.40
2022-08-16T00:57:59.867Z,18.40
2022-08-16T01:08:36.083Z,18.30
2022-08-16T01:19:02.656Z,18.20
2022-08-16T01:29:58.591Z,18.20
2022-08-16T01:40:21.941Z,18.00
2022-08-16T01:51:08.520Z,18.00
2022-08-16T02:01:30.439Z,18.00
2022-08-16T02:11:58.529Z,17.60
2022-08-16T02:22:34.798Z,17.50
2022-08-16T02:33:00.854Z,17.50
2022-08-16T02:43:27.234Z,17.60
2022-08-16T02:53:53.350Z,17.40
2022-08-16T03:04:30.199Z,17.40
2022-08-16T03:15:02.038Z,17.40
2022-08-16T03:25:25.085Z,17.30
2022-08-16T03:36:29.787Z,17.10
2022-08-16T03:46:52.919Z,17.30
2022-08-16T03:57:22.476Z,17.20
2022-08-16T04:07:46.873Z,17.30
2022-08-16T04:18:16.329Z,17.30
2022-08-16T04:28:55.826Z,17.70
2022-08-16T04:39:24.265Z,18.10
2022-08-16T04:49:46.702Z,18.40
2022-08-16T05:00:31.194Z,18.60
2022-08-16T05:11:14.159Z,19.20
2022-08-16T05:21:39.525Z,19.90
2022-08-16T05:32:31.915Z,20.30
2022-08-16T05:42:56.142Z,20.90
2022-08-16T05:53:19.897Z,21.40
2022-08-16T06:04:01.671Z,22.10
2022-08-16T06:14:29.464Z,22.50
2022-08-16T06:24:55.709Z,22.50
2022-08-16T06:35:18.911Z,22.70
2022-08-16T06:45:45.165Z,23.00
2022-08-16T06:56:23.189Z,23.70
2022-08-16T07:07:00.175Z,23.80
2022-08-16T07:17:23.238Z,24.20
2022-08-16T07:27:50.818Z,24.70
2022-08-16T07:38:20.067Z,25.40
2022-08-16T07:48:55.479Z,25.60
2022-08-16T07:59:45.775Z,25.10
2022-08-16T08:10:17.411Z,26.30
2022-08-16T08:20:59.382Z,26.40
2022-08-16T08:31:26.095Z,26.60
2022-08-16T08:41:53.138Z,27.30
2022-08-16T08:52:34.479Z,28.20
2022-08-16T09:02:58.490Z,26.70
2022-08-16T09:13:23.342Z,27.90
2022-08-16T09:23:46.906Z,28.40
2022-08-16T09:34:11.643Z,29.20
2022-08-16T09:45:12.405Z,29.30
2022-08-16T09:55:22.567Z,28.90
2022-08-16T10:05:49.372Z,30.00
2022-08-16T10:27:17.071Z,29.90
2022-08-16T10:37:32.622Z,30.40
2022-08-16T10:48:02.626Z,29.50
2022-08-16T10:58:33.932Z,29.30
2022-08-16T11:30:28.459Z,30.10
2022-08-16T11:41:02.283Z,31.30
2022-08-16T11:51:24.258Z,32.10
2022-08-16T12:01:59.152Z,32.90
2022-08-16T12:12:23.599Z,32.60
2022-08-16T12:22:48.006Z,31.80
2022-08-16T12:33:14.622Z,32.60
2022-08-16T12:43:48.665Z,30.80
2022-08-16T12:54:13.855Z,31.60
2022-08-16T13:04:37.764Z,31.30
2022-08-16T13:15:14.525Z,31.70
2022-08-16T13:25:44.617Z,31.20
2022-08-16T13:36:45.688Z,33.40
2022-08-16T13:47:43.704Z,32.80
2022-08-16T13:58:35.024Z,33.00
2022-08-16T14:09:09.848Z,30.90
2022-08-16T14:19:44.611Z,31.70
2022-08-16T14:30:27.448Z,31.10
2022-08-16T14:41:25.775Z,30.10
2022-08-16T14:51:49.335Z,30.50
2022-08-16T15:02:23.472Z,30.20
2022-08-16T15:12:58.355Z,29.90
2022-08-16T15:23:20.688Z,31.80
2022-08-16T15:33:50.752Z,31.30
2022-08-16T15:44:22.402Z,31.50
2022-08-16T15:54:53.679Z,31.10
2022-08-16T16:05:17.141Z,31.00
2022-08-16T16:15:43.440Z,30.80
2022-08-16T16:26:05.980Z,30.90
2022-08-16T16:36:33.340Z,29.80
2022-08-16T16:46:56.676Z,30.10
2022-08-16T16:57:35.281Z,30.80
2022-08-16T17:07:57.901Z,32.10
2022-08-16T17:19:16.262Z,31.90
2022-08-16T17:29:11.941Z,31.10
2022-08-16T17:39:57.254Z,30.80
2022-08-16T17:50:21.830Z,30.60
2022-08-16T18:00:48.501Z,29.30
2022-08-16T18:11:10.428Z,28.40
2022-08-16T18:21:52.562Z,27.70
2022-08-16T18:32:14.278Z,27.40
2022-08-16T18:42:37.437Z,26.50
2022-08-16T18:53:02.044Z,25.90
2022-08-16T19:03:27.300Z,25.20
2022-08-16T19:13:52.983Z,24.70
2022-08-16T19:24:18.018Z,24.30
2022-08-16T19:34:39.946Z,24.00
2022-08-16T19:45:06.064Z,23.60
2022-08-16T19:55:49.705Z,23.30
2022-08-16T20:06:35.799Z,23.20
2022-08-16T20:27:55.049Z,23.00
2022-08-16T20:38:17.143Z,22.50
2022-08-16T20:48:40.283Z,22.20
2022-08-16T20:59:02.377Z,22.00
2022-08-16T21:09:27.582Z,21.80
2022-08-16T21:19:49.685Z,21.70
2022-08-16T21:30:16.493Z,21.60
2022-08-16T21:40:42.827Z,21.20
2022-08-16T21:51:08.867Z,21.50
2022-08-16T22:01:31.307Z,21.10
2022-08-16T22:11:57.680Z,20.90
2022-08-16T22:22:19.767Z,20.70
2022-08-16T22:32:45.922Z,20.80
2022-08-16T22:43:08.421Z,20.60
2022-08-16T22:53:32.128Z,20.30
2022-08-16T23:03:55.709Z,20.20
2022-08-16T23:14:22.377Z,20.30
2022-08-16T23:24:55.925Z,20.10
2022-08-16T23:35:28.576Z,20.00
2022-08-16T23:46:08.703Z,19.80
2022-08-16T23:56:40.726Z,19.40
